createdAt,value
2017-09-20T00:00:07.897Z,1015.84
2017-09-20T00:02:01.345Z,1015.86
2017-09-20T00:03:01.377Z,1015.85
2017-09-20T00:04:54.844Z,1015.83
2017-09-20T00:05:54.856Z,1015.85
2017-09-20T00:07:49.320Z,1015.86
2017-09-20T00:08:49.356Z,1015.90
2017-09-20T00:10:42.816Z,1015.88
2017-09-20T00:11:42.834Z,1015.90
2017-09-20T00:13:36.313Z,1015.92
2017-09-20T00:14:36.313Z,1015.94
2017-09-20T00:16:30.777Z,1015.87
2017-09-20T00:17:30.809Z,1015.87
2017-09-20T00:19:24.281Z,1015.82
2017-09-20T00:20:24.297Z,1015.81
2017-09-20T00:22:17.777Z,1015.82
2017-09-20T00:23:17.786Z,1015.79
2017-09-20T00:25:11.274Z,1015.81
2017-09-20T00:26:11.313Z,1015.81
2017-09-20T00:28:05.794Z,1015.78
2017-09-20T00:29:05.810Z,1015.79
2017-09-20T00:30:59.298Z,1015.76
2017-09-20T00:31:59.306Z,1015.74
2017-09-20T00:33:52.762Z,1015.74
2017-09-20T00:34:52.794Z,1015.73
2017-09-20T00:36:46.266Z,1015.63
2017-09-20T00:37:46.282Z,1015.62
2017-09-20T00:39:39.753Z,1015.58
2017-09-20T00:40:39.770Z,1015.58
2017-09-20T00:42:33.290Z,1015.59
2017-09-20T00:43:33.306Z,1015.60
2017-09-20T00:45:27.778Z,1015.64
2017-09-20T00:46:27.795Z,1015.62
2017-09-20T00:48:22.250Z,1015.64
2017-09-20T00:49:22.290Z,1015.67
2017-09-20T00:51:18.379Z,1015.68
2017-09-20T00:52:18.411Z,1015.62
2017-09-20T00:54:11.363Z,1015.66
2017-09-20T00:55:11.371Z,1015.60
2017-09-20T00:57:04.331Z,1015.64
2017-09-20T00:58:04.365Z,1015.63
2017-09-20T00:59:58.835Z,1015.61
2017-09-20T01:00:58.851Z,1015.59
2017-09-20T01:02:52.323Z,1015.59
2017-09-20T01:03:52.339Z,1015.52
2017-09-20T01:05:46.787Z,1015.52
2017-09-20T01:06:46.827Z,1015.51
2017-09-20T01:08:40.307Z,1015.51
2017-09-20T01:09:40.315Z,1015.53
2017-09-20T01:11:34.764Z,1015.56
2017-09-20T01:12:34.804Z,1015.53
2017-09-20T01:14:28.268Z,1015.51
2017-09-20T01:15:28.288Z,1015.51
2017-09-20T01:17:21.732Z,1015.54
2017-09-20T01:18:21.772Z,1015.55
2017-09-20T01:20:15.292Z,1015.52
2017-09-20T01:21:15.316Z,1015.53
2017-09-20T01:23:08.764Z,1015.51
2017-09-20T01:24:08.787Z,1015.51
2017-09-20T01:26:02.268Z,1015.52
2017-09-20T01:27:02.284Z,1015.50
2017-09-20T01:28:55.732Z,1015.48
2017-09-20T01:29:55.765Z,1015.44
2017-09-20T01:31:49.293Z,1015.51
2017-09-20T01:32:49.310Z,1015.47
2017-09-20T01:34:42.789Z,1015.53
2017-09-20T01:35:42.796Z,1015.47
2017-09-20T01:37:35.757Z,1015.48
2017-09-20T01:38:35.797Z,1015.48
2017-09-20T01:40:29.300Z,1015.42
2017-09-20T01:41:29.509Z,1015.46
2017-09-20T01:43:22.761Z,1015.46
2017-09-20T01:44:22.793Z,1015.48
2017-09-20T01:46:16.274Z,1015.46
2017-09-20T01:47:16.282Z,1015.52
2017-09-20T01:49:09.730Z,1015.48
2017-09-20T01:50:09.770Z,1015.42
2017-09-20T01:52:03.297Z,1015.42
2017-09-20T01:53:03.305Z,1015.38
2017-09-20T01:54:56.762Z,1015.37
2017-09-20T01:55:56.794Z,1015.38
2017-09-20T01:57:50.265Z,1015.37
2017-09-20T01:58:50.282Z,1015.37
2017-09-20T02:00:43.730Z,1015.33
2017-09-20T02:01:43.770Z,1015.35
2017-09-20T02:03:37.234Z,1015.35
2017-09-20T02:04:37.258Z,1015.35
2017-09-20T02:06:31.706Z,1015.36
2017-09-20T02:07:31.746Z,1015.33
2017-09-20T02:09:25.307Z,1015.33
2017-09-20T02:10:25.315Z,1015.33
2017-09-20T02:12:20.347Z,1015.36
2017-09-20T02:13:20.411Z,1015.35
2017-09-20T02:15:14.923Z,1015.44
2017-09-20T02:16:14.875Z,1015.39
2017-09-20T02:18:09.331Z,1015.42
2017-09-20T02:19:09.371Z,1015.46
2017-09-20T02:21:02.851Z,1015.43
2017-09-20T02:22:02.859Z,1015.44
2017-09-20T02:23:56.308Z,1015.44
2017-09-20T02:24:57.339Z,1015.49
2017-09-20T02:26:49.811Z,1015.52
2017-09-20T02:27:49.827Z,1015.50
2017-09-20T02:29:43.300Z,1015.50
2017-09-20T02:30:43.316Z,1015.50
2017-09-20T02:32:36.795Z,1015.52
2017-09-20T02:33:37.804Z,1015.49
2017-09-20T02:35:31.253Z,1015.50
2017-09-20T02:36:31.294Z,1015.47
2017-09-20T02:38:24.764Z,1015.46
2017-09-20T02:39:24.780Z,1015.48
2017-09-20T02:41:18.228Z,1015.54
2017-09-20T02:42:18.268Z,1015.46
2017-09-20T02:44:11.748Z,1015.48
2017-09-20T02:45:11.756Z,1015.53
2017-09-20T02:47:05.260Z,1015.55
2017-09-20T02:48:05.308Z,1015.56
2017-09-20T02:49:58.780Z,1015.56
2017-09-20T02:50:58.803Z,1015.57
2017-09-20T02:52:52.238Z,1015.49
2017-09-20T02:53:52.284Z,1015.53
2017-09-20T02:55:45.757Z,1015.55
2017-09-20T02:56:45.773Z,1015.52
2017-09-20T02:58:39.276Z,1015.57
2017-09-20T02:59:39.317Z,1015.54
2017-09-20T03:01:32.796Z,1015.57
2017-09-20T03:02:32.813Z,1015.59
2017-09-20T03:04:26.261Z,1015.58
2017-09-20T03:05:26.293Z,1015.58
2017-09-20T03:07:19.285Z,1015.67
2017-09-20T03:08:19.301Z,1015.68
2017-09-20T03:10:13.781Z,1015.71
2017-09-20T03:11:13.789Z,1015.68
2017-09-20T03:13:08.253Z,1015.68
2017-09-20T03:14:08.286Z,1015.66
2017-09-20T03:16:04.814Z,1015.69
2017-09-20T03:17:04.413Z,1015.70
2017-09-20T03:18:57.805Z,1015.69
2017-09-20T03:19:57.837Z,1015.66
2017-09-20T03:21:51.310Z,1015.66
2017-09-20T03:22:51.326Z,1015.71
2017-09-20T03:24:47.358Z,1015.65
2017-09-20T03:25:47.458Z,1015.69
2017-09-20T03:27:41.837Z,1015.62
2017-09-20T03:28:41.862Z,1015.62
2017-09-20T03:30:35.335Z,1015.69
2017-09-20T03:31:35.350Z,1015.65
2017-09-20T03:33:28.822Z,1015.63
2017-09-20T03:34:28.838Z,1015.63
2017-09-20T03:36:22.286Z,1015.67
2017-09-20T03:37:22.319Z,1015.69
2017-09-20T03:39:15.302Z,1015.65
2017-09-20T03:40:15.319Z,1015.63
2017-09-20T03:42:09.766Z,1015.63
2017-09-20T03:43:09.821Z,1015.60
2017-09-20T03:45:04.280Z,1015.59
2017-09-20T03:46:04.295Z,1015.58
2017-09-20T03:47:57.775Z,1015.63
2017-09-20T03:48:57.783Z,1015.60
2017-09-20T03:50:51.287Z,1015.61
2017-09-20T03:51:51.308Z,1015.60
2017-09-20T03:53:44.779Z,1015.61
2017-09-20T03:54:44.796Z,1015.60
2017-09-20T03:56:38.244Z,1015.62
2017-09-20T03:57:38.286Z,1015.66
2017-09-20T03:59:31.757Z,1015.62
2017-09-20T04:00:31.774Z,1015.59
2017-09-20T04:02:25.277Z,1015.61
2017-09-20T04:03:25.309Z,1015.56
2017-09-20T04:05:19.812Z,1015.58
2017-09-20T04:06:19.813Z,1015.62
2017-09-20T04:08:15.829Z,1015.61
2017-09-20T04:09:15.869Z,1015.66
2017-09-20T04:11:09.357Z,1015.66
2017-09-20T04:12:09.365Z,1015.67
2017-09-20T04:14:02.821Z,1015.59
2017-09-20T04:15:02.853Z,1015.59
2017-09-20T04:16:56.333Z,1015.52
2017-09-20T04:17:56.341Z,1015.51
2017-09-20T04:19:49.797Z,1015.53
2017-09-20T04:20:49.835Z,1015.59
2017-09-20T04:22:43.310Z,1015.52
2017-09-20T04:23:43.315Z,1015.52
2017-09-20T04:25:36.764Z,1015.55
2017-09-20T04:26:36.812Z,1015.55
2017-09-20T04:28:32.268Z,1015.54
2017-09-20T04:29:32.453Z,1015.55
2017-09-20T04:31:25.741Z,1015.51
2017-09-20T04:32:25.776Z,1015.51
2017-09-20T04:34:19.292Z,1015.51
2017-09-20T04:35:19.308Z,1015.51
2017-09-20T04:37:12.784Z,1015.50
2017-09-20T04:38:12.797Z,1015.51
2017-09-20T04:40:06.373Z,1015.52
2017-09-20T04:41:06.381Z,1015.57
2017-09-20T04:43:00.861Z,1015.62
2017-09-20T04:44:00.885Z,1015.61
2017-09-20T04:45:53.838Z,1015.64
2017-09-20T04:46:53.869Z,1015.68
2017-09-20T04:48:48.357Z,1015.65
2017-09-20T04:49:48.365Z,1015.65
2017-09-20T04:51:41.813Z,1015.63
2017-09-20T04:52:41.853Z,1015.60
2017-09-20T04:54:35.333Z,1015.62
2017-09-20T04:55:35.341Z,1015.65
2017-09-20T04:57:28.797Z,1015.68
2017-09-20T04:58:28.829Z,1015.68
2017-09-20T05:00:22.333Z,1015.68
2017-09-20T05:01:22.317Z,1015.68
2017-09-20T05:03:18.374Z,1015.73
2017-09-20T05:04:18.358Z,1015.73
2017-09-20T05:06:11.846Z,1015.71
2017-09-20T05:07:11.862Z,1015.72
2017-09-20T05:09:05.382Z,1015.72
2017-09-20T05:10:05.430Z,1015.70
2017-09-20T05:11:58.910Z,1015.67
2017-09-20T05:12:58.926Z,1015.63
2017-09-20T05:14:52.494Z,1015.70
2017-09-20T05:15:54.430Z,1015.71
2017-09-20T05:17:45.966Z,1015.79
2017-09-20T05:18:45.961Z,1015.78
2017-09-20T05:20:39.440Z,1015.78
2017-09-20T05:21:39.464Z,1015.80
2017-09-20T05:23:32.945Z,1015.80
2017-09-20T05:24:32.952Z,1015.78
2017-09-20T05:26:27.404Z,1015.76
2017-09-20T05:27:27.453Z,1015.72
2017-09-20T05:29:21.924Z,1015.77
2017-09-20T05:30:21.940Z,1015.76
2017-09-20T05:32:15.420Z,1015.69
2017-09-20T05:33:15.428Z,1015.70
2017-09-20T05:35:08.900Z,1015.66
2017-09-20T05:36:08.940Z,1015.64
2017-09-20T05:38:02.425Z,1015.62
2017-09-20T05:39:02.434Z,1015.68
2017-09-20T05:40:55.393Z,1015.65
2017-09-20T05:41:55.441Z,1015.72
2017-09-20T05:43:49.913Z,1015.76
2017-09-20T05:44:49.928Z,1015.76
2017-09-20T05:46:43.496Z,1015.80
2017-09-20T05:47:43.593Z,1015.77
2017-09-20T05:49:37.001Z,1015.79
2017-09-20T05:50:36.993Z,1015.78
2017-09-20T05:52:30.449Z,1015.86
2017-09-20T05:53:30.481Z,1015.86
2017-09-20T05:55:23.960Z,1015.86
2017-09-20T05:56:23.968Z,1015.86
2017-09-20T05:58:18.425Z,1015.90
2017-09-20T05:59:18.465Z,1015.89
2017-09-20T06:01:12.937Z,1015.87
2017-09-20T06:02:12.954Z,1015.86
2017-09-20T06:04:06.410Z,1015.88
2017-09-20T06:05:06.442Z,1015.90
2017-09-20T06:07:00.921Z,1015.87
2017-09-20T06:08:00.929Z,1015.87
2017-09-20T06:09:54.378Z,1015.88
2017-09-20T06:10:54.426Z,1015.90
2017-09-20T06:12:47.906Z,1015.91
2017-09-20T06:13:47.914Z,1015.88
2017-09-20T06:15:42.370Z,1015.87
2017-09-20T06:16:42.402Z,1015.86
2017-09-20T06:18:36.882Z,1015.82
2017-09-20T06:19:36.890Z,1015.85
2017-09-20T06:21:30.378Z,1015.80
2017-09-20T06:22:30.386Z,1015.87
2017-09-20T06:24:23.842Z,1015.80
2017-09-20T06:25:23.874Z,1015.75
2017-09-20T06:27:17.370Z,1015.81
2017-09-20T06:28:17.362Z,1015.84
2017-09-20T06:30:10.835Z,1015.80
2017-09-20T06:31:10.851Z,1015.81
2017-09-20T06:33:05.342Z,1015.83
2017-09-20T06:34:05.347Z,1015.81
2017-09-20T06:35:59.802Z,1015.79
2017-09-20T06:36:59.835Z,1015.80
2017-09-20T06:38:54.307Z,1015.79
2017-09-20T06:39:54.330Z,1015.79
2017-09-20T06:41:48.811Z,1015.78
2017-09-20T06:42:48.819Z,1015.82
2017-09-20T06:44:43.274Z,1015.77
2017-09-20T06:45:43.316Z,1015.82
2017-09-20T06:47:37.787Z,1015.87
2017-09-20T06:48:37.802Z,1015.86
2017-09-20T06:50:31.294Z,1015.91
2017-09-20T06:51:31.315Z,1015.95
2017-09-20T06:53:24.772Z,1015.96
2017-09-20T06:54:24.796Z,1016.02
2017-09-20T06:56:18.275Z,1015.98
2017-09-20T06:57:18.300Z,1015.99
2017-09-20T06:59:11.755Z,1016.02
2017-09-20T07:00:11.788Z,1016.00
2017-09-20T07:02:05.292Z,1015.99
2017-09-20T07:03:05.308Z,1015.97
2017-09-20T07:04:58.787Z,1016.00
2017-09-20T07:05:58.803Z,1016.00
2017-09-20T07:07:52.260Z,1016.01
2017-09-20T07:08:52.295Z,1016.01
2017-09-20T07:10:46.788Z,1015.97
2017-09-20T07:11:46.796Z,1016.00
2017-09-20T07:13:41.260Z,1015.92
2017-09-20T07:14:41.284Z,1015.95
2017-09-20T07:16:34.772Z,1015.96
2017-09-20T07:17:34.772Z,1016.01
2017-09-20T07:19:29.236Z,1016.00
2017-09-20T07:20:29.284Z,1016.01
2017-09-20T07:22:22.756Z,1016.04
2017-09-20T07:23:22.765Z,1016.05
2017-09-20T07:25:17.229Z,1016.04
2017-09-20T07:26:17.253Z,1016.02
2017-09-20T07:28:10.733Z,1016.01
2017-09-20T07:29:10.748Z,1016.05
2017-09-20T07:31:04.213Z,1016.08
2017-09-20T07:32:04.252Z,1016.08
2017-09-20T07:33:57.735Z,1016.10
2017-09-20T07:34:57.740Z,1016.08
2017-09-20T07:36:52.197Z,1016.13
2017-09-20T07:37:52.237Z,1016.16
2017-09-20T07:39:47.348Z,1016.18
2017-09-20T07:40:47.381Z,1016.18
2017-09-20T07:42:40.301Z,1016.18
2017-09-20T07:43:40.340Z,1016.16
2017-09-20T07:45:34.813Z,1016.19
2017-09-20T07:46:34.829Z,1016.24
2017-09-20T07:48:29.309Z,1016.23
2017-09-20T07:49:29.320Z,1016.26
2017-09-20T07:51:23.775Z,1016.22
2017-09-20T07:52:23.813Z,1016.28
2017-09-20T07:54:17.293Z,1016.29
2017-09-20T07:55:17.309Z,1016.29
2017-09-20T07:57:11.765Z,1016.31
2017-09-20T07:58:11.806Z,1016.34
2017-09-20T08:00:06.285Z,1016.34
2017-09-20T08:01:06.296Z,1016.38
2017-09-20T08:03:00.749Z,1016.35
2017-09-20T08:04:00.781Z,1016.38
2017-09-20T08:05:55.261Z,1016.41
2017-09-20T08:06:55.269Z,1016.43
2017-09-20T08:08:48.733Z,1016.44
2017-09-20T08:09:48.765Z,1016.46
2017-09-20T08:11:42.246Z,1016.43
2017-09-20T08:12:42.253Z,1016.41
2017-09-20T08:14:35.710Z,1016.39
2017-09-20T08:15:35.750Z,1016.35
2017-09-20T08:17:30.238Z,1016.32
2017-09-20T08:18:30.246Z,1016.35
2017-09-20T08:20:23.695Z,1016.32
2017-09-20T08:21:23.734Z,1016.33
2017-09-20T08:23:17.302Z,1016.37
2017-09-20T08:24:17.311Z,1016.32
2017-09-20T08:26:10.787Z,1016.32
2017-09-20T08:27:10.798Z,1016.31
2017-09-20T08:29:04.270Z,1016.33
2017-09-20T08:30:04.286Z,1016.32
2017-09-20T08:31:58.759Z,1016.29
2017-09-20T08:32:58.783Z,1016.27
2017-09-20T08:34:52.255Z,1016.28
2017-09-20T08:35:52.271Z,1016.23
2017-09-20T08:37:45.726Z,1016.27
2017-09-20T08:38:45.759Z,1016.30
2017-09-20T08:40:40.231Z,1016.33
2017-09-20T08:41:40.247Z,1016.33
2017-09-20T08:43:33.735Z,1016.32
2017-09-20T08:44:33.751Z,1016.36
2017-09-20T08:46:28.223Z,1016.39
2017-09-20T08:47:28.239Z,1016.39
2017-09-20T08:49:22.727Z,1016.43
2017-09-20T08:50:22.735Z,1016.40
2017-09-20T08:52:16.223Z,1016.45
2017-09-20T08:53:16.216Z,1016.43
2017-09-20T08:55:10.671Z,1016.44
2017-09-20T08:56:10.712Z,1016.43
2017-09-20T08:58:05.184Z,1016.42
2017-09-20T08:59:05.207Z,1016.46
2017-09-20T09:00:58.664Z,1016.49
2017-09-20T09:01:58.703Z,1016.53
2017-09-20T09:03:52.169Z,1016.52
2017-09-20T09:04:52.192Z,1016.56
2017-09-20T09:06:45.639Z,1016.54
2017-09-20T09:07:45.681Z,1016.59
2017-09-20T09:09:38.664Z,1016.58
2017-09-20T09:10:38.696Z,1016.63
2017-09-20T09:12:33.140Z,1016.56
2017-09-20T09:13:33.193Z,1016.60
2017-09-20T09:15:27.672Z,1016.57
2017-09-20T09:16:27.672Z,1016.61
2017-09-20T09:18:21.129Z,1016.59
2017-09-20T09:19:21.168Z,1016.58
2017-09-20T09:21:15.641Z,1016.60
2017-09-20T09:22:15.650Z,1016.62
2017-09-20T09:24:10.161Z,1016.62
2017-09-20T09:25:10.161Z,1016.63
2017-09-20T09:27:03.633Z,1016.66
2017-09-20T09:28:03.665Z,1016.65
2017-09-20T09:29:57.113Z,1016.62
2017-09-20T09:30:57.161Z,1016.57
2017-09-20T09:32:50.629Z,1016.58
2017-09-20T09:33:50.649Z,1016.56
2017-09-20T09:35:44.123Z,1016.57
2017-09-20T09:36:44.130Z,1016.59
2017-09-20T09:38:39.619Z,1016.67
2017-09-20T09:39:39.635Z,1016.59
2017-09-20T09:41:33.106Z,1016.56
2017-09-20T09:42:33.147Z,1016.62
2017-09-20T09:44:27.619Z,1016.60
2017-09-20T09:45:27.649Z,1016.64
2017-09-20T09:47:21.099Z,1016.60
2017-09-20T09:48:21.140Z,1016.64
2017-09-20T09:50:15.619Z,1016.64
2017-09-20T09:51:15.643Z,1016.58
2017-09-20T09:53:10.091Z,1016.58
2017-09-20T09:54:10.131Z,1016.63
2017-09-20T09:56:04.595Z,1016.63
2017-09-20T09:57:04.627Z,1016.65
2017-09-20T09:58:59.107Z,1016.62
2017-09-20T09:59:59.131Z,1016.67
2017-09-20T10:01:52.628Z,1016.69
2017-09-20T10:02:52.619Z,1016.65
2017-09-20T10:04:46.108Z,1016.68
2017-09-20T10:05:46.116Z,1016.69
2017-09-20T10:07:39.595Z,1016.60
2017-09-20T10:08:39.628Z,1016.61
2017-09-20T10:10:33.108Z,1016.57
2017-09-20T10:11:33.129Z,1016.52
2017-09-20T10:13:27.580Z,1016.51
2017-09-20T10:14:27.620Z,1016.54
2017-09-20T10:16:21.103Z,1016.54
2017-09-20T10:17:21.116Z,1016.51
2017-09-20T10:19:15.579Z,1016.52
2017-09-20T10:20:15.620Z,1016.51
2017-09-20T10:22:10.093Z,1016.54
2017-09-20T10:23:10.108Z,1016.49
2017-09-20T10:25:04.613Z,1016.48
2017-09-20T10:26:04.620Z,1016.51
2017-09-20T10:27:59.068Z,1016.49
2017-09-20T10:28:59.109Z,1016.48
2017-09-20T10:30:53.590Z,1016.51
2017-09-20T10:31:53.607Z,1016.54
2017-09-20T10:33:47.109Z,1016.54
2017-09-20T10:34:47.117Z,1016.58
2017-09-20T10:36:40.093Z,1016.55
2017-09-20T10:37:40.125Z,1016.56
2017-09-20T10:39:34.597Z,1016.55
2017-09-20T10:40:34.637Z,1016.56
2017-09-20T10:42:28.157Z,1016.56
2017-09-20T10:43:28.141Z,1016.57
2017-09-20T10:45:22.181Z,1016.55
2017-09-20T10:46:22.293Z,1016.55
2017-09-20T10:48:16.677Z,1016.55
2017-09-20T10:49:16.701Z,1016.56
2017-09-20T10:51:10.269Z,1016.54
2017-09-20T10:52:10.293Z,1016.56
2017-09-20T10:54:03.390Z,1016.62
2017-09-20T10:55:03.397Z,1016.55
2017-09-20T10:56:57.772Z,1016.61
2017-09-20T10:57:57.821Z,1016.57
2017-09-20T10:59:51.413Z,1016.58
2017-09-20T11:00:51.524Z,1016.56
2017-09-20T11:02:44.380Z,1016.54
2017-09-20T11:03:44.437Z,1016.53
2017-09-20T11:05:37.406Z,1016.58
2017-09-20T11:06:37.421Z,1016.52
2017-09-20T11:08:30.877Z,1016.54
2017-09-20T11:09:30.918Z,1016.54
2017-09-20T11:11:25.390Z,1016.53
2017-09-20T11:12:25.438Z,1016.52
2017-09-20T11:14:19.005Z,1016.52
2017-09-20T11:15:18.989Z,1016.56
2017-09-20T11:17:13.486Z,1016.53
2017-09-20T11:18:13.517Z,1016.58
2017-09-20T11:20:09.075Z,1016.53
2017-09-20T11:21:07.142Z,1016.58
2017-09-20T11:23:00.518Z,1016.56
2017-09-20T11:24:00.806Z,1016.58
2017-09-20T11:25:54.726Z,1016.56
2017-09-20T11:26:54.670Z,1016.60
2017-09-20T11:28:47.686Z,1016.63
2017-09-20T11:29:48.646Z,1016.63
2017-09-20T11:31:41.647Z,1016.62
2017-09-20T11:32:41.694Z,1016.60
2017-09-20T11:34:35.119Z,1016.68
2017-09-20T11:35:35.159Z,1016.67
2017-09-20T11:37:30.303Z,1016.65
2017-09-20T11:38:30.230Z,1016.65
2017-09-20T11:40:24.727Z,1016.63
2017-09-20T11:41:24.759Z,1016.69
2017-09-20T11:43:18.798Z,1016.72
2017-09-20T11:45:33.143Z,1016.63
2017-09-20T11:46:33.183Z,1016.63
2017-09-20T11:48:27.951Z,1016.63
2017-09-20T11:49:27.807Z,1016.63
2017-09-20T11:51:21.279Z,1016.68
2017-09-20T11:52:21.288Z,1016.70
2017-09-20T11:54:14.279Z,1016.70
2017-09-20T11:55:14.319Z,1016.76
2017-09-20T11:57:07.431Z,1016.73
2017-09-20T11:58:07.655Z,1016.70
2017-09-20T12:00:01.783Z,1016.75
2017-09-20T12:01:11.087Z,1016.77
2017-09-20T12:02:56.375Z,1016.72
2017-09-20T12:03:56.424Z,1016.75
2017-09-20T12:05:51.743Z,1016.76
2017-09-20T12:06:51.616Z,1016.74
2017-09-20T12:08:45.976Z,1016.73
2017-09-20T12:09:45.983Z,1016.72
2017-09-20T12:11:41.281Z,1016.70
2017-09-20T12:12:40.492Z,1016.67
2017-09-20T12:14:36.624Z,1016.68
2017-09-20T12:15:36.656Z,1016.72
2017-09-20T12:17:31.104Z,1016.71
2017-09-20T12:18:31.157Z,1016.70
2017-09-20T12:20:25.608Z,1016.63
2017-09-20T12:21:25.650Z,1016.62
2017-09-20T12:23:20.100Z,1016.63
2017-09-20T12:24:20.153Z,1016.75
2017-09-20T12:26:14.640Z,1016.58
2017-09-20T12:27:14.664Z,1016.53
2017-09-20T12:29:10.761Z,1016.54
2017-09-20T12:30:10.841Z,1016.47
2017-09-20T12:32:04.241Z,1016.49
2017-09-20T12:33:04.281Z,1016.44
2017-09-20T12:35:00.522Z,1016.39
2017-09-20T12:36:00.577Z,1016.31
2017-09-20T12:37:53.968Z,1016.37
2017-09-20T12:38:53.984Z,1016.34
2017-09-20T12:40:48.461Z,1016.35
2017-09-20T12:41:48.497Z,1016.28
2017-09-20T12:43:43.013Z,1016.38
2017-09-20T12:44:43.025Z,1016.33
2017-09-20T12:46:37.521Z,1016.38
2017-09-20T12:47:37.585Z,1016.35
2017-09-20T12:49:32.073Z,1016.34
2017-09-20T12:50:32.081Z,1016.32
2017-09-20T12:52:26.538Z,1016.34
2017-09-20T12:53:26.582Z,1016.32
2017-09-20T12:55:21.058Z,1016.34
2017-09-20T12:56:21.082Z,1016.33
2017-09-20T12:58:14.538Z,1016.32
2017-09-20T12:59:14.602Z,1016.33
2017-09-20T13:01:08.066Z,1016.33
2017-09-20T13:02:08.081Z,1016.34
2017-09-20T13:04:01.538Z,1016.31
2017-09-20T13:05:01.578Z,1016.31
2017-09-20T13:06:55.058Z,1016.30
2017-09-20T13:07:55.082Z,1016.28
2017-09-20T13:09:48.585Z,1016.31
2017-09-20T13:10:48.601Z,1016.29
2017-09-20T13:12:42.058Z,1016.26
2017-09-20T13:13:42.097Z,1016.27
2017-09-20T13:15:35.585Z,1016.25
2017-09-20T13:16:35.618Z,1016.25
2017-09-20T13:18:30.090Z,1016.25
2017-09-20T13:19:30.090Z,1016.22
2017-09-20T13:21:23.562Z,1016.25
2017-09-20T13:22:23.594Z,1016.24
2017-09-20T13:24:18.258Z,1016.15
2017-09-20T13:25:18.282Z,1016.18
2017-09-20T13:27:12.738Z,1016.19
2017-09-20T13:28:12.778Z,1016.22
2017-09-20T13:30:07.298Z,1016.19
2017-09-20T13:31:07.307Z,1016.15
2017-09-20T13:33:00.826Z,1016.14
2017-09-20T13:34:00.838Z,1016.12
2017-09-20T13:35:55.316Z,1016.14
2017-09-20T13:36:55.354Z,1016.14
2017-09-20T13:38:49.841Z,1016.14
2017-09-20T13:39:49.858Z,1016.12
2017-09-20T13:41:43.321Z,1016.11
2017-09-20T13:42:43.353Z,1016.15
2017-09-20T13:44:39.409Z,1016.13
2017-09-20T13:45:37.846Z,1016.16
2017-09-20T13:47:31.310Z,1016.18
2017-09-20T13:48:32.334Z,1016.19
2017-09-20T13:50:24.334Z,1016.18
2017-09-20T13:51:24.357Z,1016.15
2017-09-20T13:53:17.838Z,1016.16
2017-09-20T13:54:17.854Z,1016.13
2017-09-20T13:56:11.310Z,1016.11
2017-09-20T13:57:11.350Z,1016.11
2017-09-20T13:59:04.837Z,1016.11
2017-09-20T14:00:04.838Z,1016.10
2017-09-20T14:01:59.302Z,1016.16
2017-09-20T14:02:59.342Z,1016.17
2017-09-20T14:04:52.342Z,1016.12
2017-09-20T14:05:52.350Z,1016.13
2017-09-20T14:07:45.806Z,1016.21
2017-09-20T14:08:45.846Z,1016.25
2017-09-20T14:10:40.838Z,1016.22
2017-09-20T14:11:40.351Z,1016.18
2017-09-20T14:13:34.807Z,1016.13
2017-09-20T14:14:35.839Z,1016.17
2017-09-20T14:16:29.335Z,1016.19
2017-09-20T14:17:29.351Z,1016.18
2017-09-20T14:19:22.799Z,1016.17
2017-09-20T14:20:22.877Z,1016.19
2017-09-20T14:22:17.344Z,1016.26
2017-09-20T14:23:17.343Z,1016.17
2017-09-20T14:25:11.807Z,1016.18
2017-09-20T14:26:11.848Z,1016.18
2017-09-20T14:28:06.327Z,1016.22
2017-09-20T14:29:06.335Z,1016.24
2017-09-20T14:31:00.807Z,1016.16
2017-09-20T14:32:00.847Z,1016.17
2017-09-20T14:33:54.335Z,1016.16
2017-09-20T14:34:54.344Z,1016.14
2017-09-20T14:36:47.807Z,1016.20
2017-09-20T14:37:47.848Z,1016.21
2017-09-20T14:39:42.320Z,1016.21
2017-09-20T14:40:42.344Z,1016.12
2017-09-20T14:42:35.303Z,1016.15
2017-09-20T14:43:35.352Z,1016.09
2017-09-20T14:45:29.856Z,1016.17
2017-09-20T14:46:29.856Z,1016.13
2017-09-20T14:48:23.321Z,1016.07
2017-09-20T14:49:23.360Z,1016.07
2017-09-20T14:51:17.840Z,1016.08
2017-09-20T14:52:17.873Z,1016.09
2017-09-20T14:54:11.328Z,1016.05
2017-09-20T14:55:11.370Z,1016.07
2017-09-20T14:57:04.865Z,1016.08
2017-09-20T14:58:04.873Z,1016.11
2017-09-20T14:59:59.329Z,1016.05
2017-09-20T15:00:59.561Z,1016.03
2017-09-20T15:02:53.881Z,1015.97
2017-09-20T15:03:53.889Z,1015.96
2017-09-20T15:05:48.353Z,1015.91
2017-09-20T15:06:48.401Z,1015.91
2017-09-20T15:08:42.873Z,1015.86
2017-09-20T15:09:42.890Z,1015.85
2017-09-20T15:11:36.385Z,1015.84
2017-09-20T15:12:36.393Z,1015.85
2017-09-20T15:14:30.858Z,1015.82
2017-09-20T15:15:30.898Z,1015.87
2017-09-20T15:17:25.377Z,1015.86
2017-09-20T15:18:25.394Z,1015.86
2017-09-20T15:20:19.884Z,1015.86
2017-09-20T15:21:19.919Z,1015.81
2017-09-20T15:23:14.355Z,1015.84
2017-09-20T15:24:14.396Z,1015.82
2017-09-20T15:26:08.875Z,1015.84
2017-09-20T15:27:08.900Z,1015.80
2017-09-20T15:29:03.348Z,1015.87
2017-09-20T15:30:03.389Z,1015.86
2017-09-20T15:31:57.868Z,1015.86
2017-09-20T15:32:57.893Z,1015.79
2017-09-20T15:34:51.364Z,1015.85
2017-09-20T15:35:51.388Z,1015.83
2017-09-20T15:37:45.845Z,1015.82
2017-09-20T15:38:45.885Z,1015.84
2017-09-20T15:40:40.366Z,1015.83
2017-09-20T15:41:40.380Z,1015.81
2017-09-20T15:43:34.844Z,1015.80
2017-09-20T15:44:34.884Z,1015.80
2017-09-20T15:46:29.484Z,1015.77
2017-09-20T15:47:29.525Z,1015.80
2017-09-20T15:49:22.870Z,1015.79
2017-09-20T15:50:22.909Z,1015.75
2017-09-20T15:52:16.421Z,1015.77
2017-09-20T15:53:16.443Z,1015.75
2017-09-20T15:55:10.949Z,1015.74
2017-09-20T15:56:10.934Z,1015.78
2017-09-20T15:58:04.437Z,1015.79
2017-09-20T15:59:04.493Z,1015.79
2017-09-20T16:00:58.984Z,1015.77
2017-09-20T16:01:58.982Z,1015.74
2017-09-20T16:03:52.525Z,1015.77
2017-09-20T16:04:53.470Z,1015.78
2017-09-20T16:06:46.021Z,1015.77
2017-09-20T16:07:46.048Z,1015.79
2017-09-20T16:09:40.486Z,1015.78
2017-09-20T16:10:40.536Z,1015.74
2017-09-20T16:12:35.000Z,1015.78
2017-09-20T16:13:35.022Z,1015.77
2017-09-20T16:15:28.510Z,1015.76
2017-09-20T16:16:28.526Z,1015.75
2017-09-20T16:18:22.990Z,1015.78
2017-09-20T16:19:23.030Z,1015.77
2017-09-20T16:21:17.502Z,1015.77
2017-09-20T16:22:17.521Z,1015.77
2017-09-20T16:24:10.530Z,1015.79
2017-09-20T16:25:10.535Z,1015.78
2017-09-20T16:27:03.519Z,1015.79
2017-09-20T16:28:03.552Z,1015.78
2017-09-20T16:29:56.583Z,1015.76
2017-09-20T16:30:56.590Z,1015.76
2017-09-20T16:32:50.047Z,1015.74
2017-09-20T16:33:50.079Z,1015.74
2017-09-20T16:35:44.591Z,1015.78
2017-09-20T16:36:44.607Z,1015.78
2017-09-20T16:38:38.103Z,1015.76
2017-09-20T16:39:38.128Z,1015.77
2017-09-20T16:41:31.127Z,1015.75
2017-09-20T16:42:31.144Z,1015.77
2017-09-20T16:44:24.624Z,1015.78
2017-09-20T16:45:24.640Z,1015.79
2017-09-20T16:47:18.119Z,1015.79
2017-09-20T16:48:18.143Z,1015.77
2017-09-20T16:50:11.183Z,1015.75
2017-09-20T16:51:11.200Z,1015.75
2017-09-20T16:53:05.640Z,1015.75
2017-09-20T16:54:05.664Z,1015.81
2017-09-20T16:56:00.144Z,1015.84
2017-09-20T16:57:00.152Z,1015.85
2017-09-20T16:58:53.624Z,1015.88
2017-09-20T16:59:53.664Z,1015.90
2017-09-20T17:01:48.786Z,1015.84
2017-09-20T17:02:47.744Z,1015.84
2017-09-20T17:04:42.193Z,1015.85
2017-09-20T17:05:42.232Z,1015.86
2017-09-20T17:07:35.713Z,1015.87
2017-09-20T17:08:35.760Z,1015.88
2017-09-20T17:10:29.305Z,1015.87
2017-09-20T17:11:29.313Z,1015.81
2017-09-20T17:13:22.777Z,1015.87
2017-09-20T17:14:22.817Z,1015.90
2017-09-20T17:16:17.427Z,1015.88
2017-09-20T17:17:17.361Z,1015.88
2017-09-20T17:19:11.777Z,1015.89
2017-09-20T17:20:11.817Z,1015.87
2017-09-20T17:22:08.091Z,1015.82
2017-09-20T17:23:08.192Z,1015.87
2017-09-20T17:25:01.594Z,1015.88
2017-09-20T17:26:01.609Z,1015.89
2017-09-20T17:27:55.138Z,1015.91
2017-09-20T17:28:55.234Z,1015.90
2017-09-20T17:30:49.593Z,1015.95
2017-09-20T17:31:49.625Z,1015.95